Time;durP1;ratioP1;P1;durP2;ratioP2;P2;SDS_P1;SDS_P2;PMS_P1;PMS_P2;Temp;Humidity;BMP_temperature;BMP_pressure;BME280_temperature;BME280_humidity;BME280_pressure;Samples;Min_cycle;Max_cycle;Signal;HPM_P1;HPM_P2
2022/12/31 00:01:29;;;;;;;2.70;1.53;;;9.10;99.90;;;;;;5030194;28;20177;-70
2022/12/31 00:03:56;;;;;;;2.10;1.70;;;9.10;99.90;;;;;;5030165;28;20249;-69
2022/12/31 00:06:27;;;;;;;1.63;1.43;;;9.10;99.90;;;;;;5030111;28;20202;-69
2022/12/31 00:08:55;;;;;;;2.67;1.83;;;9.10;99.90;;;;;;5029572;28;20934;-68
2022/12/31 00:11:22;;;;;;;2.30;2.17;;;9.10;99.90;;;;;;5030402;28;20454;-68
2022/12/31 00:13:49;;;;;;;2.10;1.67;;;9.10;99.90;;;;;;5030510;28;20416;-69
2022/12/31 00:16:18;;;;;;;1.57;1.47;;;9.10;99.90;;;;;;5032819;28;20493;-69
2022/12/31 00:18:45;;;;;;;2.17;1.63;;;9.20;99.90;;;;;;5031983;28;20461;-69
2022/12/31 00:21:12;;;;;;;2.40;1.73;;;9.20;99.90;;;;;;5014460;28;20416;-70
2022/12/31 00:23:38;;;;;;;3.27;1.67;;;9.20;99.90;;;;;;5031441;28;20434;-68
2022/12/31 00:26:06;;;;;;;4.97;4.07;;;9.20;99.90;;;;;;5033529;28;20811;-66
2022/12/31 00:28:34;;;;;;;1.60;1.50;;;9.30;99.90;;;;;;5034926;28;20209;-66
2022/12/31 00:31:09;;;;;;;11.07;7.50;;;9.20;99.90;;;;;;5035020;28;20419;-67
2022/12/31 00:33:35;;;;;;;2.10;1.90;;;9.30;99.90;;;;;;5035647;28;20469;-66
2022/12/31 00:36:12;;;;;;;1.93;1.33;;;9.30;99.90;;;;;;5034926;28;20432;-67
2022/12/31 00:38:39;;;;;;;2.40;1.57;;;9.30;99.90;;;;;;5033516;28;20503;-70
2022/12/31 00:41:06;;;;;;;1.63;1.53;;;9.30;99.90;;;;;;5033341;28;20489;-67
2022/12/31 00:43:32;;;;;;;1.40;1.10;;;9.30;99.90;;;;;;5033184;28;20447;-68
2022/12/31 00:45:58;;;;;;;4.00;2.17;;;9.20;99.90;;;;;;5033079;28;20438;-68
2022/12/31 00:48:23;;;;;;;1.87;1.77;;;9.20;99.90;;;;;;5033369;28;20490;-68
2022/12/31 00:50:50;;;;;;;7.57;5.40;;;9.10;99.90;;;;;;5018943;28;20186;-67
2022/12/31 00:53:15;;;;;;;6.73;5.23;;;9.10;99.90;;;;;;5033428;28;20180;-67
2022/12/31 00:55:41;;;;;;;15.17;10.20;;;9.10;99.90;;;;;;5026450;28;20510;-67
2022/12/31 00:58:06;;;;;;;3.53;2.40;;;9.00;99.90;;;;;;5033254;28;20314;-68
2022/12/31 01:00:32;;;;;;;2.13;1.70;;;9.10;99.90;;;;;;5033286;28;20191;-68
2022/12/31 01:02:58;;;;;;;2.37;1.63;;;9.00;99.90;;;;;;5033721;28;20557;-67
2022/12/31 01:05:23;;;;;;;1.73;1.60;;;8.90;99.90;;;;;;5033302;28;20185;-67
2022/12/31 01:07:49;;;;;;;1.90;1.80;;;8.90;99.90;;;;;;5033261;28;20172;-67
2022/12/31 01:11:17;;;;;;;7.80;5.00;;;8.90;99.90;;;;;;5033085;28;20212;-67
2022/12/31 01:13:03;;;;;;;4.40;2.73;;;8.90;99.90;;;;;;5033142;28;20640;-66
2022/12/31 01:15:33;;;;;;;5.30;2.00;;;8.90;99.90;;;;;;5032559;28;20412;-66
2022/12/31 01:17:58;;;;;;;1.97;1.67;;;9.00;99.90;;;;;;5025514;28;20186;-67
2022/12/31 01:20:24;;;;;;;11.50;9.20;;;9.00;99.90;;;;;;5033020;28;20476;-67
2022/12/31 01:22:49;;;;;;;4.13;3.73;;;9.10;99.90;;;;;;5033344;28;20187;-68
2022/12/31 01:25:15;;;;;;;2.00;1.73;;;9.20;99.90;;;;;;5032750;28;20197;-63
2022/12/31 01:27:41;;;;;;;1.70;1.10;;;9.20;99.90;;;;;;5032761;28;20182;-69
2022/12/31 01:30:07;;;;;;;1.03;0.90;;;9.30;99.90;;;;;;5030430;28;20206;-67
2022/12/31 01:32:32;;;;;;;1.63;1.53;;;9.30;99.90;;;;;;5031673;28;20181;-67
2022/12/31 01:34:58;;;;;;;1.30;1.13;;;9.30;99.90;;;;;;5032524;28;20418;-67
2022/12/31 01:37:23;;;;;;;2.13;1.63;;;9.40;99.90;;;;;;5032713;28;20545;-67
2022/12/31 01:39:49;;;;;;;1.43;1.30;;;9.40;99.90;;;;;;5016394;28;20298;-67
2022/12/31 01:42:14;;;;;;;2.00;1.90;;;9.50;99.90;;;;;;5014866;28;20183;-67
2022/12/31 01:44:40;;;;;;;2.47;1.50;;;9.50;99.90;;;;;;5032673;28;20175;-67
2022/12/31 01:47:14;;;;;;;3.10;1.63;;;9.50;99.90;;;;;;5013775;28;20206;-67
2022/12/31 01:49:53;;;;;;;1.17;1.00;;;9.60;99.90;;;;;;5032659;28;20252;-66
2022/12/31 01:52:25;;;;;;;1.40;1.07;;;9.60;99.90;;;;;;5030327;28;20702;-67
2022/12/31 01:55:07;;;;;;;2.00;1.53;;;9.70;99.90;;;;;;5032297;28;20777;-67
2022/12/31 01:57:34;;;;;;;2.20;2.00;;;9.70;99.90;;;;;;5032380;28;20456;-66
2022/12/31 02:00:00;;;;;;;3.13;2.40;;;9.80;99.90;;;;;;5032037;28;20420;-67
2022/12/31 02:02:26;;;;;;;1.37;1.20;;;9.80;99.90;;;;;;5014545;28;20776;-67
2022/12/31 02:04:56;;;;;;;5.50;4.20;;;9.90;99.90;;;;;;5032154;28;20410;-67
2022/12/31 02:07:22;;;;;;;1.50;1.40;;;10.10;99.90;;;;;;5032390;28;20343;-67
2022/12/31 02:09:47;;;;;;;2.03;1.80;;;10.20;99.90;;;;;;5032218;28;20548;-66
2022/12/31 02:12:13;;;;;;;2.33;1.30;;;10.10;99.90;;;;;;5026082;28;20410;-67
2022/12/31 02:14:43;;;;;;;1.90;1.40;;;10.20;99.90;;;;;;5031662;28;20574;-67
2022/12/31 02:17:32;;;;;;;1.30;1.20;;;10.30;99.90;;;;;;5028787;28;20450;-67
2022/12/31 02:20:29;;;;;;;1.57;1.30;;;10.30;99.90;;;;;;5031812;28;20529;-67
2022/12/31 02:23:09;;;;;;;2.97;1.80;;;10.40;99.90;;;;;;5031367;28;20409;-66
2022/12/31 02:26:02;;;;;;;2.77;1.60;;;10.50;99.90;;;;;;5028532;28;20418;-67
2022/12/31 02:28:50;;;;;;;1.43;1.00;;;10.50;99.90;;;;;;5018049;28;20406;-66
2022/12/31 02:31:21;;;;;;;1.03;0.93;;;10.50;99.90;;;;;;5026303;28;20430;-67
2022/12/31 02:33:57;;;;;;;1.33;1.10;;;10.50;99.90;;;;;;5031213;28;20433;-67
2022/12/31 02:36:29;;;;;;;1.20;1.10;;;10.60;99.90;;;;;;5031309;28;20426;-66
2022/12/31 02:38:56;;;;;;;2.10;1.87;;;10.50;99.90;;;;;;5031240;28;20908;-67
2022/12/31 02:44:17;;;;;;;1.00;0.90;;;10.50;99.90;;;;;;5024601;28;20428;-67
2022/12/31 02:47:09;;;;;;;1.00;0.90;;;10.60;99.90;;;;;;5031382;28;20441;-66
2022/12/31 02:50:02;;;;;;;1.00;0.77;;;10.60;99.90;;;;;;4990444;28;20470;-66
2022/12/31 02:52:36;;;;;;;0.80;0.80;;;10.50;99.90;;;;;;5031305;28;20464;-67
2022/12/31 02:55:16;;;;;;;0.70;0.70;;;10.50;99.90;;;;;;5023270;28;20418;-67
2022/12/31 02:58:01;;;;;;;1.20;1.10;;;10.50;99.90;;;;;;5030541;28;20883;-67
2022/12/31 03:03:31;;;;;;;0.77;0.77;;;10.60;99.90;;;;;;4987177;28;20392;-66
2022/12/31 03:05:58;;;;;;;0.70;0.60;;;10.60;99.90;;;;;;5021488;28;20519;-67
2022/12/31 03:08:26;;;;;;;1.07;0.73;;;10.60;99.90;;;;;;5030208;28;20722;-66
2022/12/31 03:10:52;;;;;;;1.23;1.13;;;10.50;99.90;;;;;;5030171;28;20417;-68
2022/12/31 03:13:17;;;;;;;1.40;1.27;;;10.60;99.90;;;;;;5030103;28;20493;-68
2022/12/31 03:15:43;;;;;;;0.80;0.80;;;10.50;99.90;;;;;;5030338;28;20275;-67
2022/12/31 03:18:12;;;;;;;0.80;0.80;;;10.60;99.90;;;;;;5030129;28;20654;-67
2022/12/31 03:23:34;;;;;;;1.70;0.87;;;10.60;99.90;;;;;;5030363;28;20537;-68
2022/12/31 03:26:01;;;;;;;1.13;1.03;;;10.70;99.90;;;;;;5029302;28;20452;-67
2022/12/31 03:28:29;;;;;;;1.03;0.83;;;10.70;99.90;;;;;;5029670;28;20870;-67
2022/12/31 03:30:58;;;;;;;0.90;0.90;;;10.70;99.90;;;;;;5029590;28;20755;-67
2022/12/31 03:33:24;;;;;;;1.10;1.00;;;10.70;99.90;;;;;;5029342;28;20419;-67
2022/12/31 03:35:51;;;;;;;1.40;1.00;;;10.60;99.90;;;;;;5029345;28;20667;-67
2022/12/31 03:38:18;;;;;;;1.00;0.93;;;10.60;99.90;;;;;;5029630;28;20465;-67
2022/12/31 03:40:47;;;;;;;1.77;1.00;;;10.50;99.90;;;;;;5029304;28;20418;-67
2022/12/31 03:43:13;;;;;;;1.27;0.90;;;10.50;99.90;;;;;;5021287;28;20427;-66
2022/12/31 03:45:39;;;;;;;1.83;1.00;;;10.50;99.90;;;;;;5029920;28;20960;-66
2022/12/31 03:48:07;;;;;;;1.57;0.93;;;10.40;99.90;;;;;;5029646;28;20494;-66
2022/12/31 03:50:33;;;;;;;0.77;0.70;;;10.50;99.90;;;;;;5029533;28;20222;-67
2022/12/31 03:52:58;;;;;;;1.27;0.90;;;10.50;99.90;;;;;;5029571;28;20766;-67
2022/12/31 03:55:24;;;;;;;0.97;0.80;;;10.60;99.90;;;;;;5029294;28;20444;-67
2022/12/31 03:57:50;;;;;;;0.80;0.80;;;10.60;99.90;;;;;;5014509;28;20184;-67
2022/12/31 04:00:18;;;;;;;1.63;0.80;;;10.60;99.90;;;;;;5030484;28;20611;-67
2022/12/31 04:02:45;;;;;;;0.80;0.77;;;10.50;99.90;;;;;;5032950;28;20940;-67
2022/12/31 04:05:11;;;;;;;1.00;0.90;;;10.60;99.90;;;;;;5033305;28;20430;-66
2022/12/31 04:07:37;;;;;;;1.40;1.20;;;10.60;99.90;;;;;;5033360;28;20449;-67
2022/12/31 04:10:05;;;;;;;1.00;0.83;;;10.60;99.90;;;;;;5033397;28;20466;-67
2022/12/31 04:12:30;;;;;;;0.80;0.80;;;10.60;99.90;;;;;;5033421;28;20183;-67
2022/12/31 04:14:56;;;;;;;1.67;1.40;;;10.60;99.90;;;;;;5032884;28;20417;-66
2022/12/31 04:17:22;;;;;;;1.50;1.20;;;10.70;99.90;;;;;;5032317;28;20222;-67
2022/12/31 04:19:47;;;;;;;1.30;0.90;;;10.80;99.90;;;;;;5033311;28;20191;-67
2022/12/31 04:22:13;;;;;;;0.80;0.80;;;10.90;99.90;;;;;;5033547;28;20187;-67
2022/12/31 04:24:40;;;;;;;0.97;0.87;;;10.80;99.90;;;;;;5034164;28;20179;-67
2022/12/31 04:27:05;;;;;;;1.23;0.80;;;10.80;99.90;;;;;;5034330;28;20579;-67
2022/12/31 04:29:31;;;;;;;0.80;0.80;;;10.90;99.90;;;;;;5032786;28;20461;-67
2022/12/31 04:31:57;;;;;;;0.87;0.77;;;10.90;99.90;;;;;;5032993;28;20275;-66
2022/12/31 04:34:22;;;;;;;1.17;1.00;;;11.00;99.90;;;;;;5032981;28;20596;-66
2022/12/31 04:36:48;;;;;;;1.00;0.83;;;11.00;99.90;;;;;;5032238;28;20199;-66
2022/12/31 04:39:13;;;;;;;0.80;0.77;;;10.90;99.90;;;;;;5032464;28;20646;-66
2022/12/31 04:41:39;;;;;;;0.90;0.90;;;11.00;99.90;;;;;;5032901;28;20233;-65
2022/12/31 04:44:04;;;;;;;0.87;0.83;;;11.00;99.90;;;;;;5032426;28;20580;-67
2022/12/31 04:46:32;;;;;;;1.10;0.87;;;11.00;99.90;;;;;;5032257;28;20260;-67
2022/12/31 04:48:58;;;;;;;0.60;0.60;;;11.10;99.90;;;;;;5029184;28;20211;-67
2022/12/31 04:51:25;;;;;;;0.90;0.80;;;11.10;99.90;;;;;;5033169;28;20418;-66
2022/12/31 04:53:51;;;;;;;0.70;0.70;;;11.00;99.90;;;;;;5018858;28;20426;-66
2022/12/31 04:56:17;;;;;;;0.60;0.60;;;11.00;99.90;;;;;;5032304;28;20462;-67
2022/12/31 04:58:43;;;;;;;0.80;0.73;;;11.10;99.90;;;;;;5031856;28;20422;-67
2022/12/31 05:01:09;;;;;;;0.80;0.70;;;11.10;99.90;;;;;;5032353;28;20517;-66
2022/12/31 05:03:35;;;;;;;0.80;0.80;;;11.20;99.90;;;;;;5032179;28;20537;-66
2022/12/31 05:06:03;;;;;;;1.20;0.80;;;11.30;99.90;;;;;;5031943;28;20767;-66
2022/12/31 05:08:30;;;;;;;1.30;0.90;;;11.20;99.90;;;;;;5031414;28;20440;-66
2022/12/31 05:10:55;;;;;;;0.73;0.73;;;11.30;99.90;;;;;;5031708;28;21745;-66
2022/12/31 05:13:21;;;;;;;0.70;0.70;;;11.30;99.90;;;;;;5032010;28;20429;-67
2022/12/31 05:15:47;;;;;;;1.27;0.90;;;11.30;99.90;;;;;;5032029;28;20183;-67
2022/12/31 05:18:13;;;;;;;0.70;0.70;;;11.40;99.90;;;;;;5032025;28;20725;-66
2022/12/31 05:20:39;;;;;;;2.37;0.90;;;11.40;99.90;;;;;;5032003;28;20179;-66
2022/12/31 05:23:04;;;;;;;0.70;0.70;;;11.40;99.90;;;;;;5031976;28;20419;-67
2022/12/31 05:25:31;;;;;;;0.80;0.70;;;11.40;99.90;;;;;;5031776;28;20500;-67
2022/12/31 05:27:56;;;;;;;0.80;0.80;;;11.40;99.90;;;;;;5031822;28;20226;-67
2022/12/31 05:30:22;;;;;;;1.03;0.80;;;11.40;99.90;;;;;;5031567;28;20956;-68
2022/12/31 05:32:48;;;;;;;1.20;1.00;;;11.50;99.90;;;;;;5031744;28;20176;-67
2022/12/31 05:35:15;;;;;;;2.23;0.73;;;11.50;99.90;;;;;;5031297;28;20441;-66
2022/12/31 05:37:40;;;;;;;0.63;0.63;;;11.50;99.90;;;;;;5031424;28;20821;-66
2022/12/31 05:40:07;;;;;;;1.77;0.73;;;11.40;99.90;;;;;;5031243;28;20422;-67
2022/12/31 05:42:33;;;;;;;0.80;0.70;;;11.40;99.90;;;;;;5028249;28;20275;-66
2022/12/31 05:44:58;;;;;;;0.63;0.63;;;11.40;99.90;;;;;;5031711;28;20454;-66
2022/12/31 05:47:24;;;;;;;0.70;0.70;;;11.40;99.90;;;;;;5031614;28;20218;-66
2022/12/31 05:49:50;;;;;;;0.90;0.80;;;11.30;99.90;;;;;;5030704;28;20580;-66
2022/12/31 05:52:16;;;;;;;0.70;0.70;;;11.30;99.90;;;;;;5031760;28;20421;-67
2022/12/31 05:54:42;;;;;;;1.07;0.93;;;11.30;99.90;;;;;;5032054;28;20473;-67
2022/12/31 05:57:07;;;;;;;0.60;0.60;;;11.30;99.90;;;;;;5031819;28;20524;-67
2022/12/31 05:59:33;;;;;;;0.80;0.80;;;11.30;99.90;;;;;;5031458;28;20223;-67
2022/12/31 06:01:59;;;;;;;2.87;0.90;;;11.30;99.90;;;;;;5032303;28;20248;-67
2022/12/31 06:04:25;;;;;;;0.80;0.80;;;11.30;99.90;;;;;;5031271;28;20435;-67
2022/12/31 06:06:50;;;;;;;0.70;0.70;;;11.40;99.90;;;;;;5030754;28;20207;-67
2022/12/31 06:09:17;;;;;;;1.07;0.97;;;11.40;99.90;;;;;;5029040;28;20567;-67
2022/12/31 06:11:43;;;;;;;0.80;0.80;;;11.40;99.90;;;;;;5029913;28;20482;-67
2022/12/31 06:14:09;;;;;;;1.30;1.00;;;11.50;99.90;;;;;;5031570;28;20411;-67
2022/12/31 06:16:34;;;;;;;0.80;0.80;;;11.50;99.90;;;;;;5031608;28;20464;-67
2022/12/31 06:19:01;;;;;;;0.83;0.80;;;11.60;99.90;;;;;;5030927;28;20175;-67
2022/12/31 06:21:27;;;;;;;0.90;0.90;;;11.60;99.90;;;;;;5031167;28;20658;-67
2022/12/31 06:23:53;;;;;;;1.13;0.80;;;11.70;99.90;;;;;;5030090;28;20423;-67
2022/12/31 06:26:18;;;;;;;1.00;0.90;;;11.60;99.90;;;;;;5030648;28;20805;-67
2022/12/31 06:28:44;;;;;;;1.00;0.87;;;11.70;99.90;;;;;;5030448;28;20261;-67
2022/12/31 06:31:12;;;;;;;0.93;0.87;;;11.70;99.90;;;;;;5030743;28;20191;-67
2022/12/31 06:33:37;;;;;;;1.00;0.90;;;11.70;99.90;;;;;;5030400;28;20357;-67
2022/12/31 06:36:05;;;;;;;1.10;1.00;;;11.80;99.90;;;;;;5030551;28;20525;-67
2022/12/31 06:38:33;;;;;;;0.70;0.70;;;11.80;99.90;;;;;;5030341;28;20255;-67
2022/12/31 06:41:06;;;;;;;1.00;0.90;;;11.80;99.90;;;;;;5030441;28;20434;-67
2022/12/31 06:43:32;;;;;;;0.83;0.83;;;11.80;99.90;;;;;;5030196;28;20897;-67
2022/12/31 06:46:05;;;;;;;1.53;1.27;;;12.00;99.90;;;;;;5030538;28;20771;-68
2022/12/31 06:48:32;;;;;;;0.73;0.73;;;11.90;99.90;;;;;;5030538;28;20403;-67
2022/12/31 06:51:04;;;;;;;1.37;0.90;;;12.10;99.90;;;;;;5030488;28;20452;-67
2022/12/31 06:53:30;;;;;;;0.83;0.83;;;12.10;99.90;;;;;;5030219;28;20421;-67
2022/12/31 06:55:56;;;;;;;0.80;0.80;;;12.00;99.90;;;;;;5028927;28;20450;-67
2022/12/31 06:58:22;;;;;;;0.70;0.70;;;12.10;99.90;;;;;;5030421;28;20464;-67
2022/12/31 07:01:13;;;;;;;0.70;0.70;;;12.10;99.90;;;;;;5030398;28;20183;-66
2022/12/31 07:04:06;;;;;;;0.93;0.90;;;12.10;99.90;;;;;;5030753;28;20501;-67
2022/12/31 07:06:40;;;;;;;0.80;0.80;;;12.20;99.90;;;;;;5027498;28;20533;-66
2022/12/31 07:09:15;;;;;;;0.80;0.70;;;12.20;99.90;;;;;;5013824;28;20611;-67
2022/12/31 07:12:00;;;;;;;0.73;0.70;;;12.20;99.90;;;;;;5030017;28;20476;-68
2022/12/31 07:14:36;;;;;;;0.70;0.70;;;12.30;99.90;;;;;;5026207;28;20471;-67
2022/12/31 07:17:01;;;;;;;1.30;1.20;;;12.40;99.90;;;;;;5029883;28;20457;-67
2022/12/31 07:19:45;;;;;;;1.63;0.90;;;12.50;99.90;;;;;;5029790;28;20410;-67
2022/12/31 07:22:14;;;;;;;1.33;0.70;;;12.50;99.90;;;;;;5023941;28;20175;-66
2022/12/31 07:24:43;;;;;;;0.80;0.80;;;12.60;99.90;;;;;;5029825;28;20769;-68
2022/12/31 07:27:40;;;;;;;0.70;0.70;;;12.60;99.90;;;;;;5029660;28;20473;-67
2022/12/31 07:30:06;;;;;;;0.70;0.70;;;12.70;99.90;;;;;;5025729;28;20469;-67
2022/12/31 07:32:56;;;;;;;1.23;1.00;;;12.80;99.90;;;;;;5029992;28;20473;-67
2022/12/31 07:35:39;;;;;;;0.80;0.80;;;12.80;99.90;;;;;;5028801;28;20521;-68
2022/12/31 07:38:11;;;;;;;1.03;0.77;;;12.90;99.90;;;;;;5020063;28;20403;-68
2022/12/31 07:41:13;;;;;;;1.13;0.90;;;13.00;99.90;;;;;;5029327;28;20491;-68
2022/12/31 07:43:44;;;;;;;1.10;1.00;;;13.20;99.90;;;;;;5029740;28;20413;-68
2022/12/31 07:46:12;;;;;;;1.50;1.07;;;13.20;99.90;;;;;;5029314;28;20848;-67
2022/12/31 07:48:38;;;;;;;1.00;0.90;;;13.20;99.90;;;;;;5029364;28;20933;-68
2022/12/31 07:51:04;;;;;;;0.90;0.70;;;13.30;99.90;;;;;;5029731;28;20571;-67
2022/12/31 07:53:30;;;;;;;1.10;1.00;;;13.30;99.90;;;;;;5026346;28;20418;-67
2022/12/31 07:56:03;;;;;;;1.07;0.87;;;13.40;99.90;;;;;;5024324;28;20564;-67
2022/12/31 07:58:50;;;;;;;1.00;0.90;;;13.60;99.90;;;;;;5030328;28;20911;-68
2022/12/31 08:01:34;;;;;;;1.90;0.70;;;13.60;99.90;;;;;;5029651;28;20573;-67
2022/12/31 08:04:16;;;;;;;0.90;0.80;;;13.70;99.90;;;;;;5029206;28;20420;-68
2022/12/31 08:07:11;;;;;;;0.80;0.70;;;13.70;99.90;;;;;;5029439;28;20473;-67
2022/12/31 08:10:03;;;;;;;1.37;0.90;;;13.70;99.90;;;;;;5020323;28;20472;-68
2022/12/31 08:12:33;;;;;;;1.20;0.70;;;13.80;99.90;;;;;;5017949;28;20414;-68
2022/12/31 08:14:59;;;;;;;1.90;0.80;;;13.80;99.90;;;;;;5026743;28;20406;-68
2022/12/31 08:17:25;;;;;;;0.70;0.70;;;13.90;99.90;;;;;;5011453;28;20989;-67
2022/12/31 08:19:50;;;;;;;4.10;0.90;;;13.90;99.90;;;;;;5029370;28;20172;-68
2022/12/31 08:22:34;;;;;;;0.90;0.70;;;14.00;99.90;;;;;;5027101;28;20410;-67
2022/12/31 08:25:15;;;;;;;0.90;0.80;;;14.00;99.90;;;;;;5025041;28;20680;-68
2022/12/31 08:27:53;;;;;;;1.60;1.33;;;14.00;99.90;;;;;;5027433;28;20478;-67
2022/12/31 08:30:20;;;;;;;0.93;0.77;;;14.00;99.90;;;;;;5029771;28;20503;-68
2022/12/31 08:33:18;;;;;;;0.90;0.80;;;14.10;99.90;;;;;;5029503;28;20882;-68
2022/12/31 08:36:08;;;;;;;0.97;0.70;;;14.10;99.90;;;;;;5029318;28;20437;-68
2022/12/31 08:39:01;;;;;;;0.90;0.90;;;14.20;99.90;;;;;;5026519;28;20390;-68
2022/12/31 08:41:39;;;;;;;1.07;0.80;;;14.30;99.90;;;;;;5029450;28;20398;-68
2022/12/31 08:44:07;;;;;;;0.70;0.60;;;14.30;99.90;;;;;;5022634;28;20892;-68
2022/12/31 08:46:56;;;;;;;0.73;0.70;;;14.30;99.90;;;;;;5030829;28;20414;-68
2022/12/31 08:49:25;;;;;;;0.90;0.80;;;14.30;99.90;;;;;;5033192;28;20494;-68
2022/12/31 08:51:51;;;;;;;0.90;0.80;;;14.40;99.90;;;;;;5033158;28;21219;-68
2022/12/31 08:54:17;;;;;;;1.20;0.90;;;14.50;99.90;;;;;;5033456;28;20441;-67
2022/12/31 08:56:59;;;;;;;0.70;0.70;;;14.50;99.90;;;;;;5033332;28;20227;-67
2022/12/31 08:59:51;;;;;;;1.00;0.90;;;14.60;99.90;;;;;;5040487;28;20637;-68
2022/12/31 09:02:47;;;;;;;1.27;0.90;;;14.70;99.90;;;;;;5028213;28;20452;-68
2022/12/31 09:05:34;;;;;;;1.03;0.80;;;14.70;99.90;;;;;;5027607;28;20402;-69
2022/12/31 09:08:05;;;;;;;2.30;0.80;;;14.70;99.90;;;;;;5028912;28;20489;-67
2022/12/31 09:10:38;;;;;;;1.10;1.00;;;14.80;99.90;;;;;;5033309;28;20541;-68
2022/12/31 09:13:50;;;;;;;2.87;0.80;;;14.80;99.90;;;;;;5028559;28;20414;-68
2022/12/31 09:16:21;;;;;;;0.70;0.70;;;14.90;99.90;;;;;;4971745;28;20447;-68
2022/12/31 09:18:46;;;;;;;0.80;0.80;;;15.00;99.90;;;;;;5033080;28;20872;-68
2022/12/31 09:21:14;;;;;;;0.70;0.70;;;15.00;99.90;;;;;;5033194;28;20505;-68
2022/12/31 09:23:40;;;;;;;0.70;0.70;;;15.10;99.90;;;;;;5033191;28;20165;-68
2022/12/31 09:26:25;;;;;;;0.70;0.70;;;15.10;99.90;;;;;;5032942;28;20432;-68
2022/12/31 09:29:04;;;;;;;0.83;0.70;;;15.20;99.90;;;;;;5032794;28;21630;-68
2022/12/31 09:31:29;;;;;;;0.90;0.80;;;15.30;99.90;;;;;;5032973;28;20406;-68
2022/12/31 09:34:06;;;;;;;1.10;0.83;;;15.40;99.90;;;;;;5032926;28;20788;-67
2022/12/31 09:36:45;;;;;;;0.80;0.80;;;15.50;99.90;;;;;;5032654;28;20189;-67
2022/12/31 09:39:25;;;;;;;1.13;0.93;;;15.60;99.90;;;;;;5026480;28;20504;-66
2022/12/31 09:42:20;;;;;;;0.97;0.80;;;15.70;99.90;;;;;;5032542;28;20416;-67
2022/12/31 09:45:29;;;;;;;0.97;0.73;;;15.70;99.90;;;;;;5032510;28;20411;-68
2022/12/31 09:48:30;;;;;;;0.77;0.70;;;15.60;99.90;;;;;;5032447;28;20454;-67
2022/12/31 09:51:28;;;;;;;1.37;1.10;;;15.60;99.90;;;;;;5032371;28;20472;-68
2022/12/31 09:54:18;;;;;;;0.83;0.70;;;15.70;99.90;;;;;;5031811;28;20416;-67
2022/12/31 09:57:13;;;;;;;1.47;0.93;;;15.70;99.90;;;;;;5031812;28;21118;-67
2022/12/31 09:59:53;;;;;;;0.73;0.73;;;15.80;99.90;;;;;;5029437;28;20411;-67
2022/12/31 10:02:57;;;;;;;2.70;0.70;;;15.80;99.90;;;;;;5041224;28;20941;-67
2022/12/31 10:05:37;;;;;;;0.70;0.70;;;15.90;99.90;;;;;;5027664;28;20412;-67
2022/12/31 10:08:21;;;;;;;0.87;0.87;;;15.90;99.90;;;;;;5033718;28;20428;-67
2022/12/31 10:11:09;;;;;;;0.70;0.70;;;16.00;99.90;;;;;;5035975;28;20529;-66
2022/12/31 10:13:55;;;;;;;2.10;0.83;;;16.00;99.90;;;;;;5032110;28;20420;-68
2022/12/31 10:16:39;;;;;;;0.80;0.70;;;16.00;99.90;;;;;;5025142;28;20462;-66
2022/12/31 10:19:22;;;;;;;1.33;1.00;;;16.00;99.90;;;;;;5017215;28;20409;-68
2022/12/31 10:22:01;;;;;;;3.90;1.47;;;16.00;99.90;;;;;;5019470;28;20431;-67
2022/12/31 10:24:32;;;;;;;0.70;0.70;;;16.10;99.90;;;;;;5015652;28;20410;-67
2022/12/31 10:27:28;;;;;;;1.43;1.23;;;16.10;99.90;;;;;;5016716;28;20499;-67
2022/12/31 10:30:02;;;;;;;0.70;0.70;;;16.10;99.90;;;;;;5020008;28;20468;-66
2022/12/31 10:32:53;;;;;;;1.20;0.77;;;16.00;99.90;;;;;;5022822;28;20412;-67
2022/12/31 10:35:51;;;;;;;2.10;1.10;;;16.00;99.90;;;;;;5018051;28;20418;-67
2022/12/31 10:38:32;;;;;;;1.07;0.80;;;16.10;99.90;;;;;;5016933;28;20409;-68
2022/12/31 10:41:28;;;;;;;0.90;0.70;;;16.20;99.90;;;;;;5021406;28;20407;-68
2022/12/31 10:44:08;;;;;;;0.97;0.90;;;16.20;99.90;;;;;;5019443;28;20609;-69
2022/12/31 10:47:08;;;;;;;0.93;0.90;;;16.20;99.90;;;;;;5014129;28;20540;-68
2022/12/31 10:49:48;;;;;;;1.63;1.10;;;16.10;99.90;;;;;;5013077;28;20462;-67
2022/12/31 10:52:28;;;;;;;2.27;1.10;;;16.20;99.90;;;;;;5024549;28;20920;-67
2022/12/31 10:55:24;;;;;;;1.00;0.83;;;16.10;99.90;;;;;;5023089;28;20767;-67
2022/12/31 10:58:23;;;;;;;3.33;1.00;;;16.10;99.90;;;;;;5017986;28;20432;-67
2022/12/31 11:01:10;;;;;;;0.60;0.60;;;16.10;99.90;;;;;;5018286;28;20417;-66
2022/12/31 11:03:47;;;;;;;1.50;1.27;;;16.10;99.90;;;;;;5013618;28;20417;-66
2022/12/31 11:06:28;;;;;;;1.33;1.10;;;15.90;99.90;;;;;;5020426;28;20441;-67
2022/12/31 11:09:05;;;;;;;1.77;0.90;;;15.80;99.90;;;;;;5022501;28;20940;-66
2022/12/31 11:12:03;;;;;;;1.33;0.90;;;15.70;99.90;;;;;;5025260;28;20406;-69
2022/12/31 11:14:38;;;;;;;1.17;0.87;;;15.70;99.90;;;;;;5011700;28;20407;-67
2022/12/31 11:17:21;;;;;;;0.80;0.70;;;15.90;99.90;;;;;;5013323;28;20916;-67
2022/12/31 11:20:22;;;;;;;1.70;1.10;;;15.70;99.90;;;;;;5007580;28;20430;-67
2022/12/31 11:23:23;;;;;;;1.20;1.10;;;15.60;99.90;;;;;;4992100;28;20426;-67
2022/12/31 11:26:20;;;;;;;1.60;1.10;;;15.60;99.90;;;;;;5019578;28;20482;-68
2022/12/31 11:29:08;;;;;;;1.90;1.33;;;15.60;99.90;;;;;;5015183;28;20409;-67
2022/12/31 11:31:53;;;;;;;3.63;1.40;;;15.60;99.90;;;;;;5017230;28;20414;-68
2022/12/31 11:35:00;;;;;;;1.13;1.03;;;15.60;99.90;;;;;;4986789;28;20850;-67
2022/12/31 11:37:31;;;;;;;1.17;1.07;;;15.60;99.90;;;;;;5005864;28;20441;-68
2022/12/31 11:40:25;;;;;;;1.47;1.10;;;15.70;99.90;;;;;;5015763;28;20426;-65
2022/12/31 11:43:19;;;;;;;3.50;1.50;;;15.70;99.90;;;;;;5027432;28;20418;-67
2022/12/31 11:46:07;;;;;;;2.40;1.37;;;15.70;99.90;;;;;;5031641;28;20447;-66
2022/12/31 11:49:07;;;;;;;1.67;1.00;;;15.80;99.90;;;;;;5015897;28;20420;-67
2022/12/31 11:52:10;;;;;;;2.93;1.83;;;15.80;99.90;;;;;;5023839;28;20436;-67
2022/12/31 11:55:16;;;;;;;1.67;1.20;;;16.00;99.90;;;;;;5030345;28;20813;-67
2022/12/31 11:57:47;;;;;;;1.60;1.50;;;16.10;99.90;;;;;;5021658;28;20818;-67
2022/12/31 12:00:27;;;;;;;1.47;1.30;;;16.20;99.90;;;;;;5030609;28;20419;-67
2022/12/31 12:03:00;;;;;;;4.10;1.17;;;16.20;99.90;;;;;;5030608;28;20466;-67
2022/12/31 12:05:26;;;;;;;3.03;1.70;;;16.30;99.90;;;;;;5033016;28;20755;-66
2022/12/31 12:07:52;;;;;;;2.53;1.83;;;16.50;99.90;;;;;;5031244;28;20789;-67
2022/12/31 12:10:49;;;;;;;9.33;6.40;;;16.60;99.90;;;;;;5032758;28;20198;-68
2022/12/31 12:13:22;;;;;;;3.57;2.00;;;16.70;99.90;;;;;;5031923;28;20433;-67
2022/12/31 12:15:51;;;;;;;1.30;1.00;;;16.80;99.90;;;;;;5031196;28;20488;-67
2022/12/31 12:18:23;;;;;;;2.90;2.63;;;16.80;99.90;;;;;;5013415;28;20990;-68
2022/12/31 12:20:49;;;;;;;1.17;1.07;;;16.90;99.90;;;;;;5031390;28;20467;-66
2022/12/31 12:23:22;;;;;;;1.57;1.00;;;17.00;99.90;;;;;;5035308;28;20978;-68
2022/12/31 12:25:49;;;;;;;1.93;1.37;;;17.00;99.90;;;;;;5035438;28;20449;-66
2022/12/31 12:28:19;;;;;;;6.60;1.77;;;17.10;99.90;;;;;;5036225;28;20654;-67
2022/12/31 12:30:51;;;;;;;0.97;0.70;;;17.20;99.90;;;;;;5034995;28;20973;-67
2022/12/31 12:33:19;;;;;;;1.30;1.00;;;17.20;99.90;;;;;;5034719;28;20437;-67
2022/12/31 12:35:45;;;;;;;1.23;1.07;;;17.20;99.90;;;;;;5033079;28;20532;-68
2022/12/31 12:38:22;;;;;;;3.70;2.43;;;17.20;99.90;;;;;;5034836;28;20537;-68
2022/12/31 12:40:59;;;;;;;3.60;1.77;;;17.20;99.90;;;;;;5034182;28;20417;-67
2022/12/31 12:43:30;;;;;;;6.93;4.27;;;17.20;99.90;;;;;;5035167;28;20520;-67
2022/12/31 12:46:17;;;;;;;4.40;2.73;;;17.20;99.90;;;;;;5034515;28;20436;-66
2022/12/31 12:48:46;;;;;;;1.80;1.60;;;17.20;99.90;;;;;;5037774;28;20412;-68
2022/12/31 12:51:30;;;;;;;2.17;1.10;;;17.20;99.90;;;;;;5034247;28;20785;-67
2022/12/31 12:54:10;;;;;;;9.00;5.53;;;17.30;99.90;;;;;;5033371;28;20425;-68
2022/12/31 12:56:49;;;;;;;4.73;2.57;;;17.30;99.90;;;;;;5033093;28;20526;-67
2022/12/31 12:59:40;;;;;;;5.70;4.17;;;17.30;99.90;;;;;;5033578;28;20424;-67
2022/12/31 13:02:47;;;;;;;2.00;1.50;;;17.30;99.90;;;;;;5033925;28;20412;-67
2022/12/31 13:05:16;;;;;;;4.93;3.07;;;17.30;99.90;;;;;;4985858;28;20422;-69
2022/12/31 13:07:59;;;;;;;2.33;1.97;;;17.30;99.90;;;;;;5025844;28;20453;-66
2022/12/31 13:10:40;;;;;;;1.57;1.47;;;17.30;99.90;;;;;;5011715;28;20457;-68
2022/12/31 13:13:25;;;;;;;1.30;1.20;;;17.30;99.90;;;;;;5029548;28;20729;-68
2022/12/31 13:16:02;;;;;;;2.17;1.20;;;17.30;99.90;;;;;;5033439;28;20432;-67
2022/12/31 13:18:39;;;;;;;1.10;1.00;;;17.30;99.90;;;;;;5033469;28;20413;-67
2022/12/31 13:21:25;;;;;;;2.20;1.10;;;17.30;99.90;;;;;;5026128;28;20441;-69
2022/12/31 13:24:14;;;;;;;1.43;1.03;;;17.30;99.90;;;;;;5032487;28;20414;-67
2022/12/31 13:27:00;;;;;;;1.00;0.90;;;17.30;99.90;;;;;;5005354;28;20531;-68
2022/12/31 13:29:30;;;;;;;1.07;0.97;;;17.20;99.90;;;;;;5033077;28;20450;-69
2022/12/31 13:31:58;;;;;;;1.97;0.90;;;17.30;99.90;;;;;;5032603;28;20497;-68
2022/12/31 13:34:29;;;;;;;1.23;1.13;;;17.30;99.90;;;;;;5014886;28;20474;-68